createdAt,value
2018-12-23T00:01:25.160Z,100519.37
2018-12-23T00:03:53.587Z,100522.38
2018-12-23T00:06:21.995Z,100528.30
2018-12-23T00:08:50.392Z,100520.30
2018-12-23T00:11:18.774Z,100524.97
2018-12-23T00:13:47.153Z,100518.66
2018-12-23T00:16:15.560Z,100523.12
2018-12-23T00:18:43.951Z,100527.77
2018-12-23T00:21:12.348Z,100527.36
2018-12-23T00:23:40.767Z,100540.50
2018-12-23T00:26:09.182Z,100537.87
2018-12-23T00:28:37.604Z,100527.58
2018-12-23T00:31:06.060Z,100525.63
2018-12-23T00:33:34.440Z,100529.78
2018-12-23T00:36:02.830Z,100527.70
2018-12-23T00:38:31.234Z,100522.31
2018-12-23T00:40:59.647Z,100528.61
2018-12-23T00:43:28.043Z,100528.61
2018-12-23T00:45:56.451Z,100536.84
2018-12-23T00:48:24.826Z,100526.28
2018-12-23T00:50:53.251Z,100520.59
2018-12-23T00:53:21.665Z,100523.34
2018-12-23T00:55:50.076Z,100508.48
2018-12-23T00:58:18.461Z,100510.38
2018-12-23T01:00:46.921Z,100523.89
2018-12-23T01:03:15.311Z,100532.06
2018-12-23T01:05:43.740Z,100529.95
2018-12-23T01:08:12.176Z,100530.00
2018-12-23T01:10:40.556Z,100525.74
2018-12-23T01:13:09.059Z,100533.41
2018-12-23T01:15:37.479Z,100538.59
2018-12-23T01:18:05.873Z,100551.59
2018-12-23T01:20:34.291Z,100558.99
2018-12-23T01:23:02.692Z,100559.72
2018-12-23T01:25:31.079Z,100559.88
2018-12-23T01:27:59.474Z,100554.95
2018-12-23T01:30:27.867Z,100555.38
2018-12-23T01:32:56.255Z,100546.77
2018-12-23T01:35:24.781Z,100548.19
2018-12-23T01:37:53.221Z,100551.61
2018-12-23T01:40:21.732Z,100556.91
2018-12-23T01:42:50.177Z,100557.34
2018-12-23T01:45:18.564Z,100555.84
2018-12-23T01:47:47.037Z,100554.20
2018-12-23T01:50:15.430Z,100556.75
2018-12-23T01:52:43.859Z,100567.56
2018-12-23T01:55:12.243Z,100569.23
2018-12-23T01:57:40.647Z,100568.59
2018-12-23T02:00:09.295Z,100572.59
2018-12-23T02:02:37.724Z,100578.20
2018-12-23T02:05:06.251Z,100577.84
2018-12-23T02:07:34.674Z,100576.66
2018-12-23T02:10:03.215Z,100577.84
2018-12-23T02:12:31.636Z,100579.20
2018-12-23T02:15:00.094Z,100580.70
2018-12-23T02:17:28.571Z,100581.45
2018-12-23T02:19:56.961Z,100591.02
2018-12-23T02:22:25.384Z,100595.45
2018-12-23T02:24:54.203Z,100594.62
2018-12-23T02:27:22.619Z,100592.16
2018-12-23T02:29:51.031Z,100596.87
2018-12-23T02:32:19.483Z,100597.03
2018-12-23T02:34:47.888Z,100605.73
2018-12-23T02:37:16.701Z,100600.09
2018-12-23T02:39:45.079Z,100602.44
2018-12-23T02:42:13.496Z,100597.41
2018-12-23T02:44:42.007Z,100600.55
2018-12-23T02:47:10.405Z,100598.83
2018-12-23T02:49:38.777Z,100598.66
2018-12-23T02:52:07.224Z,100590.33
2018-12-23T02:54:35.627Z,100590.56
2018-12-23T02:57:04.371Z,100589.37
2018-12-23T02:59:32.804Z,100589.37
2018-12-23T03:02:01.208Z,100595.28
2018-12-23T03:04:29.570Z,100583.88
2018-12-23T03:06:57.970Z,100581.35
2018-12-23T03:09:26.432Z,100572.26
2018-12-23T03:11:54.891Z,100581.95
2018-12-23T03:14:23.262Z,100578.92
2018-12-23T03:16:51.658Z,100588.18
2018-12-23T03:19:20.091Z,100595.20
2018-12-23T03:21:48.469Z,100596.30
2018-12-23T03:24:16.883Z,100595.67
2018-12-23T03:26:45.303Z,100593.01
2018-12-23T03:29:13.704Z,100591.80
2018-12-23T03:31:42.213Z,100590.67
2018-12-23T03:34:10.665Z,100581.48
2018-12-23T03:36:39.140Z,100578.41
2018-12-23T03:39:07.687Z,100572.70
2018-12-23T03:41:36.180Z,100576.81
2018-12-23T03:44:04.617Z,100572.69
2018-12-23T03:46:33.064Z,100571.40
2018-12-23T03:49:01.449Z,100561.08
2018-12-23T03:51:29.859Z,100563.28
2018-12-23T03:53:58.283Z,100569.44
2018-12-23T03:56:26.643Z,100562.58
2018-12-23T03:58:55.043Z,100562.78
2018-12-23T04:01:23.498Z,100568.04
2018-12-23T04:03:51.899Z,100555.00
2018-12-23T04:06:24.434Z,100567.83
2018-12-23T04:08:50.725Z,100564.15
2018-12-23T04:11:19.144Z,100560.50
2018-12-23T04:13:47.533Z,100564.08
2018-12-23T04:16:15.909Z,100568.95
2018-12-23T04:18:44.335Z,100568.42
2018-12-23T04:21:12.741Z,100562.00
2018-12-23T04:23:41.124Z,100566.05
2018-12-23T04:26:09.533Z,100553.67
2018-12-23T04:28:37.964Z,100556.20
2018-12-23T04:31:06.347Z,100544.05
2018-12-23T04:33:34.771Z,100545.70
2018-12-23T04:36:03.167Z,100536.62
2018-12-23T04:38:31.595Z,100535.05
2018-12-23T04:41:00.059Z,100534.22
2018-12-23T04:43:28.459Z,100538.44
2018-12-23T04:45:56.849Z,100542.57
2018-12-23T04:48:25.242Z,100540.89
2018-12-23T04:50:53.665Z,100532.66
2018-12-23T04:53:22.084Z,100533.92
2018-12-23T04:55:50.451Z,100537.59
2018-12-23T04:58:18.857Z,100538.37
2018-12-23T05:00:47.219Z,100536.05
2018-12-23T05:03:15.611Z,100530.15
2018-12-23T05:05:44.043Z,100522.56
2018-12-23T05:08:12.423Z,100519.61
2018-12-23T05:10:40.816Z,100515.55
2018-12-23T05:13:09.420Z,100522.18
2018-12-23T05:15:37.917Z,100523.88
2018-12-23T05:18:06.363Z,100523.89
2018-12-23T05:20:34.784Z,100521.43
2018-12-23T05:23:03.163Z,100520.52
2018-12-23T05:25:31.572Z,100510.91
2018-12-23T05:27:59.952Z,100516.10
2018-12-23T05:30:28.348Z,100518.48
2018-12-23T05:32:56.748Z,100513.69
2018-12-23T05:35:25.160Z,100512.41
2018-12-23T05:37:53.648Z,100515.42
2018-12-23T05:40:22.168Z,100516.28
2018-12-23T05:42:50.553Z,100516.75
2018-12-23T05:45:18.949Z,100521.11
2018-12-23T05:47:47.328Z,100517.04
2018-12-23T05:50:15.724Z,100520.75
2018-12-23T05:52:44.124Z,100524.52
2018-12-23T05:55:12.528Z,100530.09
2018-12-23T05:57:40.893Z,100531.34
2018-12-23T06:00:09.328Z,100526.98
2018-12-23T06:02:37.743Z,100523.80
2018-12-23T06:05:06.242Z,100525.98
2018-12-23T06:07:34.699Z,100522.97
2018-12-23T06:10:03.207Z,100525.06
2018-12-23T06:12:31.616Z,100525.89
2018-12-23T06:15:00.005Z,100524.39
2018-12-23T06:17:28.403Z,100525.31
2018-12-23T06:19:56.807Z,100527.88
2018-12-23T06:22:25.233Z,100529.76
2018-12-23T06:24:53.669Z,100528.13
2018-12-23T06:27:22.152Z,100530.67
2018-12-23T06:29:50.553Z,100521.30
2018-12-23T06:32:18.968Z,100512.96
2018-12-23T06:34:47.378Z,100513.09
2018-12-23T06:37:15.778Z,100507.02
2018-12-23T06:39:44.148Z,100511.25
2018-12-23T06:42:12.976Z,100506.00
2018-12-23T06:44:41.903Z,100506.61
2018-12-23T06:47:10.567Z,100511.19
2018-12-23T06:49:38.996Z,100505.41
2018-12-23T06:52:07.459Z,100508.80
2018-12-23T06:54:35.891Z,100502.39
2018-12-23T06:57:04.500Z,100493.78
2018-12-23T06:59:32.884Z,100498.81
2018-12-23T07:02:01.301Z,100500.08
2018-12-23T07:04:29.722Z,100502.94
2018-12-23T07:06:58.101Z,100501.28
2018-12-23T07:09:26.507Z,100504.15
2018-12-23T07:11:54.915Z,100503.24
2018-12-23T07:14:23.310Z,100498.24
2018-12-23T07:16:51.703Z,100491.12
2018-12-23T07:19:20.111Z,100497.67
2018-12-23T07:21:48.582Z,100492.28
2018-12-23T07:24:19.109Z,100500.90
2018-12-23T07:26:47.548Z,100497.69
2018-12-23T07:29:15.944Z,100504.72
2018-12-23T07:31:44.339Z,100499.31
2018-12-23T07:34:12.723Z,100501.58
2018-12-23T07:36:49.377Z,100497.45
2018-12-23T07:39:11.647Z,100502.09
2018-12-23T07:41:40.057Z,100499.99
2018-12-23T07:44:08.455Z,100497.61
2018-12-23T07:46:36.867Z,100501.66
2018-12-23T07:49:05.284Z,100499.99
2018-12-23T07:51:33.715Z,100491.69
2018-12-23T07:54:02.152Z,100498.64
2018-12-23T07:56:30.595Z,100500.98
2018-12-23T07:58:59.008Z,100504.28
2018-12-23T08:01:27.399Z,100492.13
2018-12-23T08:03:55.783Z,100498.13
2018-12-23T08:06:24.184Z,100494.91
2018-12-23T08:08:52.577Z,100492.73
2018-12-23T08:11:20.973Z,100498.52
2018-12-23T08:13:49.419Z,100498.95
2018-12-23T08:16:17.828Z,100501.06
2018-12-23T08:18:46.216Z,100495.14
2018-12-23T08:21:14.592Z,100492.80
2018-12-23T08:23:42.996Z,100492.72
2018-12-23T08:26:11.373Z,100492.72
2018-12-23T08:28:39.877Z,100494.30
2018-12-23T08:31:08.316Z,100482.83
2018-12-23T08:33:36.727Z,100486.03
2018-12-23T08:36:05.127Z,100484.83
2018-12-23T08:38:33.518Z,100480.80
2018-12-23T08:41:01.903Z,100479.81
2018-12-23T08:43:31.007Z,100481.17
2018-12-23T08:45:59.389Z,100477.19
2018-12-23T08:48:27.789Z,100476.46
2018-12-23T08:50:56.304Z,100465.75
2018-12-23T08:53:24.756Z,100471.44
2018-12-23T08:55:53.151Z,100463.09
2018-12-23T08:58:21.565Z,100460.10
2018-12-23T09:00:49.931Z,100460.59
2018-12-23T09:03:19.026Z,100453.47
2018-12-23T09:05:47.763Z,100448.00
2018-12-23T09:08:16.160Z,100454.70
2018-12-23T09:10:44.544Z,100454.77
2018-12-23T09:13:12.940Z,100453.48
2018-12-23T09:15:41.354Z,100452.12
2018-12-23T09:18:09.783Z,100445.36
2018-12-23T09:20:38.220Z,100435.45
2018-12-23T09:23:06.595Z,100439.12
2018-12-23T09:25:35.006Z,100441.23
2018-12-23T09:28:03.383Z,100440.93
2018-12-23T09:30:31.772Z,100436.69
2018-12-23T09:33:01.056Z,100440.03
2018-12-23T09:35:29.455Z,100436.59
2018-12-23T09:38:01.656Z,100434.69
2018-12-23T09:40:28.264Z,100425.33
2018-12-23T09:42:56.634Z,100419.64
2018-12-23T09:45:25.182Z,100424.41
2018-12-23T09:47:53.557Z,100427.92
2018-12-23T09:50:24.757Z,100432.87
2018-12-23T09:52:53.200Z,100425.86
2018-12-23T09:55:21.703Z,100427.69
2018-12-23T09:57:50.071Z,100428.42
2018-12-23T10:00:18.463Z,100424.67
2018-12-23T10:02:46.839Z,100418.30
2018-12-23T10:05:15.270Z,100416.75
2018-12-23T10:07:43.645Z,100410.59
2018-12-23T10:10:12.048Z,100407.64
2018-12-23T10:12:40.423Z,100409.91
2018-12-23T10:15:08.820Z,100400.73
2018-12-23T10:17:37.200Z,100395.84
2018-12-23T10:20:06.200Z,100392.30
2018-12-23T10:22:34.634Z,100391.12
2018-12-23T10:25:03.027Z,100383.09
2018-12-23T10:27:31.440Z,100383.20
2018-12-23T10:29:59.799Z,100385.36
2018-12-23T10:32:28.199Z,100379.77
2018-12-23T10:34:56.622Z,100377.06
2018-12-23T10:37:25.011Z,100369.41
2018-12-23T10:39:53.435Z,100369.89
2018-12-23T10:42:21.864Z,100362.17
2018-12-23T10:44:50.236Z,100365.35
2018-12-23T10:47:18.632Z,100357.02
2018-12-23T10:49:47.016Z,100355.87
2018-12-23T10:52:15.424Z,100357.02
2018-12-23T10:54:43.817Z,100341.77
2018-12-23T10:57:12.223Z,100340.56
2018-12-23T10:59:40.979Z,100336.18
2018-12-23T11:02:13.661Z,100330.71
2018-12-23T11:04:39.810Z,100323.78
2018-12-23T11:07:08.215Z,100316.84
2018-12-23T11:09:36.651Z,100310.46
2018-12-23T11:12:05.052Z,100316.80
2018-12-23T11:14:33.484Z,100309.98
2018-12-23T11:17:01.880Z,100304.20
2018-12-23T11:19:30.340Z,100295.10
2018-12-23T11:21:58.713Z,100287.48
2018-12-23T11:24:27.104Z,100277.33
2018-12-23T11:26:55.475Z,100278.32
2018-12-23T11:29:23.875Z,100273.66
2018-12-23T11:31:52.248Z,100279.10
2018-12-23T11:34:20.654Z,100266.09
2018-12-23T11:36:49.042Z,100272.97
2018-12-23T11:39:17.452Z,100271.51
2018-12-23T11:41:45.840Z,100258.70
2018-12-23T11:44:14.312Z,100256.72
2018-12-23T11:46:42.703Z,100247.65
2018-12-23T11:49:11.099Z,100243.34
2018-12-23T11:51:39.559Z,100231.31
2018-12-23T11:54:07.943Z,100235.05
2018-12-23T11:56:36.442Z,100230.68
2018-12-23T11:59:04.830Z,100227.88
2018-12-23T12:01:33.194Z,100226.30
2018-12-23T12:04:01.732Z,100225.77
2018-12-23T12:06:30.102Z,100221.41
2018-12-23T12:09:06.810Z,100224.42
2018-12-23T12:11:28.928Z,100213.05
2018-12-23T12:13:57.333Z,100206.20
2018-12-23T12:16:25.727Z,100189.98
2018-12-23T12:18:54.247Z,100187.17
2018-12-23T12:21:22.628Z,100186.09
2018-12-23T12:23:51.579Z,100178.95
2018-12-23T12:26:19.995Z,100175.00
2018-12-23T12:28:48.360Z,100165.63
2018-12-23T12:31:16.765Z,100163.09
2018-12-23T12:33:45.167Z,100147.65
2018-12-23T12:36:13.563Z,100145.09
2018-12-23T12:38:41.975Z,100142.84
2018-12-23T12:41:10.968Z,100144.72
2018-12-23T12:43:39.354Z,100137.08
2018-12-23T12:46:07.763Z,100143.11
2018-12-23T12:48:36.140Z,100136.30
2018-12-23T12:51:04.707Z,100135.98
2018-12-23T12:53:33.101Z,100137.95
2018-12-23T12:56:02.648Z,100129.89
2018-12-23T12:58:31.226Z,100125.89
2018-12-23T13:00:59.689Z,100110.23
2018-12-23T13:03:28.244Z,100119.92
2018-12-23T13:05:56.664Z,100109.98
2018-12-23T13:08:25.039Z,100104.87
2018-12-23T13:10:55.465Z,100094.59
2018-12-23T13:13:23.865Z,100093.81
2018-12-23T13:15:52.232Z,100088.66
2018-12-23T13:18:20.611Z,100090.85
2018-12-23T13:20:49.091Z,100087.87
2018-12-23T13:23:17.507Z,100084.25
2018-12-23T13:25:45.912Z,100077.73
2018-12-23T13:28:14.311Z,100084.25
2018-12-23T13:30:42.701Z,100071.23
2018-12-23T13:33:11.090Z,100073.06
2018-12-23T13:35:39.457Z,100052.52
2018-12-23T13:38:07.868Z,100055.84
2018-12-23T13:40:52.380Z,100043.90
2018-12-23T13:44:33.160Z,100047.91
2018-12-23T13:48:10.486Z,100042.59
2018-12-23T13:51:48.798Z,100038.44
2018-12-23T13:55:24.582Z,100039.38
2018-12-23T13:58:02.678Z,100040.45
2018-12-23T14:00:45.366Z,100031.27
2018-12-23T14:03:36.519Z,100034.75
2018-12-23T14:08:20.070Z,100025.59
2018-12-23T14:11:05.503Z,100023.36
2018-12-23T14:13:33.903Z,100021.94
2018-12-23T14:16:02.274Z,100021.44
2018-12-23T14:18:30.660Z,100014.98
2018-12-23T14:20:59.143Z,100005.22
2018-12-23T14:23:27.663Z,100010.05
2018-12-23T14:25:56.051Z,100008.44
2018-12-23T14:28:24.440Z,99996.95
2018-12-23T14:30:52.852Z,99998.57
2018-12-23T14:33:21.241Z,99984.86
2018-12-23T14:35:49.635Z,99962.97
2018-12-23T14:38:18.015Z,99973.26
2018-12-23T14:40:46.402Z,99970.25
2018-12-23T14:43:14.760Z,99983.77
2018-12-23T14:45:43.144Z,99970.55
2018-12-23T14:48:11.631Z,99970.00
2018-12-23T14:50:40.020Z,99965.30
2018-12-23T14:53:08.405Z,99962.83
2018-12-23T14:55:36.874Z,99957.77
2018-12-23T14:58:05.284Z,99955.50
2018-12-23T15:00:33.766Z,99954.14
2018-12-23T15:03:02.139Z,99962.74
2018-12-23T15:05:30.523Z,99948.14
2018-12-23T15:07:58.880Z,99931.63
2018-12-23T15:10:27.315Z,99928.86
2018-12-23T15:12:55.691Z,99933.53
2018-12-23T15:15:24.137Z,99930.26
2018-12-23T15:17:52.520Z,99923.78
2018-12-23T15:20:21.127Z,99928.61
2018-12-23T15:22:49.501Z,99928.86
2018-12-23T15:25:17.885Z,99922.33
2018-12-23T15:27:46.296Z,99916.92
2018-12-23T15:30:14.667Z,99913.66
2018-12-23T15:32:43.049Z,99904.70
2018-12-23T15:35:11.436Z,99902.00
2018-12-23T15:37:39.849Z,99896.20
2018-12-23T15:40:08.347Z,99878.65
2018-12-23T15:42:36.739Z,99865.14
2018-12-23T15:45:05.545Z,99868.41
2018-12-23T15:47:33.963Z,99864.09
2018-12-23T15:50:03.228Z,99870.50
2018-12-23T15:52:34.507Z,99882.42
2018-12-23T15:55:02.879Z,99888.41
2018-12-23T15:57:31.271Z,99882.17
2018-12-23T15:59:59.675Z,99878.65
2018-12-23T16:02:28.071Z,99865.34
2018-12-23T16:04:56.433Z,99871.37
2018-12-23T16:07:24.832Z,99863.17
2018-12-23T16:09:53.246Z,99857.88
2018-12-23T16:12:21.634Z,99854.08
2018-12-23T16:14:49.995Z,99847.59
2018-12-23T16:17:38.809Z,99849.20
2018-12-23T16:20:08.447Z,99842.40
2018-12-23T16:22:36.825Z,99839.80
2018-12-23T16:25:05.459Z,99832.27
2018-12-23T16:27:33.941Z,99823.59
2018-12-23T16:30:02.325Z,99824.16
2018-12-23T16:32:30.699Z,99821.16
2018-12-23T16:34:59.079Z,99814.41
2018-12-23T16:37:27.467Z,99818.45
2018-12-23T16:39:59.638Z,99818.28
2018-12-23T16:42:26.349Z,99818.23
2018-12-23T16:44:54.724Z,99815.58
2018-12-23T16:47:23.106Z,99810.18
2018-12-23T16:49:51.527Z,99811.80
2018-12-23T16:52:19.895Z,99792.80
2018-12-23T16:54:48.291Z,99793.42
2018-12-23T16:57:16.679Z,99795.07
2018-12-23T16:59:45.082Z,99793.93
2018-12-23T17:02:13.448Z,99788.27
2018-12-23T17:04:41.849Z,99787.02
2018-12-23T17:07:10.363Z,99785.19
2018-12-23T17:09:38.761Z,99785.53
2018-12-23T17:12:07.164Z,99797.69
2018-12-23T17:14:35.565Z,99794.13
2018-12-23T17:17:04.063Z,99785.75
2018-12-23T17:19:32.492Z,99773.25
2018-12-23T17:22:00.906Z,99765.45
2018-12-23T17:24:29.274Z,99770.11
2018-12-23T17:26:57.697Z,99770.38
2018-12-23T17:29:26.075Z,99763.36
2018-12-23T17:31:54.477Z,99762.28
2018-12-23T17:34:22.867Z,99762.84
2018-12-23T17:37:23.664Z,99794.55
2018-12-23T17:39:55.324Z,99770.16
2018-12-23T17:42:26.142Z,99757.44
2018-12-23T17:44:55.354Z,99752.16
2018-12-23T17:50:36.002Z,99750.53
2018-12-23T17:56:09.245Z,99738.16
2018-12-23T17:58:38.702Z,99744.91
2018-12-23T18:01:07.893Z,99743.56
2018-12-23T18:06:25.294Z,99750.31
2018-12-23T18:08:54.488Z,99752.23
2018-12-23T18:11:23.720Z,99756.81
2018-12-23T18:13:52.884Z,99752.49
2018-12-23T18:16:22.078Z,99752.50
2018-12-23T18:18:51.584Z,99749.31
2018-12-23T18:21:20.804Z,99752.22
2018-12-23T18:23:50.297Z,99750.61
2018-12-23T18:26:19.465Z,99749.36
2018-12-23T18:28:48.909Z,99752.75
2018-12-23T18:31:18.110Z,99751.47
2018-12-23T18:33:47.304Z,99751.56
2018-12-23T18:36:16.779Z,99752.09
2018-12-23T18:38:46.254Z,99751.53
2018-12-23T18:41:15.483Z,99757.56
2018-12-23T18:43:45.036Z,99756.27
2018-12-23T18:46:14.526Z,99752.24
2018-12-23T18:48:43.732Z,99742.77
2018-12-23T18:51:12.912Z,99738.50
2018-12-23T18:53:42.134Z,99728.53
2018-12-23T18:56:11.440Z,99730.41
2018-12-23T18:58:40.674Z,99733.28
2018-12-23T19:01:10.076Z,99735.34
2018-12-23T19:03:39.407Z,99736.25
2018-12-23T19:06:11.067Z,99746.71
2018-12-23T19:08:59.459Z,99753.28
2018-12-23T19:12:01.874Z,99750.63
2018-12-23T19:15:09.125Z,99748.50
2018-12-23T19:18:16.414Z,99745.56
2018-12-23T19:21:23.710Z,99746.93
2018-12-23T19:24:31.141Z,99737.25
2018-12-23T19:27:38.405Z,99748.15
2018-12-23T19:30:45.654Z,99748.16
2018-12-23T19:33:52.959Z,99748.76
2018-12-23T19:37:00.203Z,99746.34
2018-12-23T19:40:03.400Z,99740.09
2018-12-23T19:43:10.679Z,99749.07
2018-12-23T19:46:09.101Z,99750.72
2018-12-23T19:49:16.397Z,99752.06
2018-12-23T19:52:23.672Z,99756.14
2018-12-23T19:55:32.636Z,99759.66
2018-12-23T19:58:39.874Z,99749.09
2018-12-23T20:01:47.424Z,99745.57
2018-12-23T20:04:54.999Z,99757.51
2018-12-23T20:08:02.288Z,99751.55
2018-12-23T20:11:09.842Z,99753.98
2018-12-23T20:14:17.076Z,99756.72
2018-12-23T20:17:25.115Z,99744.78
2018-12-23T20:20:21.043Z,99754.56
2018-12-23T20:23:28.267Z,99745.60
2018-12-23T20:26:35.529Z,99750.49
2018-12-23T20:29:31.605Z,99756.73
2018-12-23T20:32:23.501Z,99759.17
2018-12-23T20:35:30.774Z,99765.45
2018-12-23T20:38:38.067Z,99771.14
2018-12-23T20:41:45.338Z,99763.53
2018-12-23T20:44:52.844Z,99754.03
2018-12-23T20:48:00.392Z,99755.97
2018-12-23T20:51:07.636Z,99758.92
2018-12-23T20:54:14.915Z,99754.28
2018-12-23T20:57:22.258Z,99748.31
2018-12-23T21:00:29.534Z,99742.84
2018-12-23T21:03:36.840Z,99745.53
2018-12-23T21:06:34.562Z,99752.03
2018-12-23T21:09:41.881Z,99739.55
2018-12-23T21:12:49.388Z,99744.92
2018-12-23T21:15:56.661Z,99747.91
2018-12-23T21:19:03.924Z,99743.05
2018-12-23T21:22:11.524Z,99739.51
2018-12-23T21:25:19.156Z,99741.69
2018-12-23T21:28:26.420Z,99753.61
2018-12-23T21:31:29.593Z,99742.20
2018-12-23T21:34:36.883Z,99747.34
2018-12-23T21:37:44.125Z,99734.05
2018-12-23T21:40:51.399Z,99730.52
2018-12-23T21:43:58.722Z,99750.07
2018-12-23T21:47:03.812Z,99725.37
2018-12-23T21:50:11.205Z,99742.47
2018-12-23T21:53:04.593Z,99753.31
2018-12-23T21:55:59.689Z,99784.65
2018-12-23T21:59:07.044Z,99776.84
2018-12-23T22:02:14.611Z,99798.88
2018-12-23T22:05:21.892Z,99802.84
2018-12-23T22:08:29.398Z,99802.22
2018-12-23T22:11:36.712Z,99835.61
2018-12-23T22:14:06.180Z,99863.52
2018-12-23T22:16:35.419Z,99879.59
2018-12-23T22:19:04.884Z,99885.13
2018-12-23T22:21:34.613Z,99895.61
2018-12-23T22:24:03.839Z,99907.16
2018-12-23T22:26:33.085Z,99915.70
2018-12-23T22:29:02.338Z,99925.02
2018-12-23T22:31:51.948Z,99927.83
2018-12-23T22:34:21.866Z,99955.59
2018-12-23T22:36:51.105Z,99976.01
2018-12-23T22:39:20.309Z,99979.86
2018-12-23T22:41:49.888Z,99992.45
2018-12-23T22:44:19.214Z,99997.20
2018-12-23T22:46:48.481Z,100017.23
2018-12-23T22:49:18.331Z,100020.09
2018-12-23T22:52:06.820Z,100023.87
2018-12-23T22:54:36.318Z,100025.81
2018-12-23T22:57:06.316Z,100024.95
2018-12-23T22:59:35.511Z,100038.02
2018-12-23T23:02:05.071Z,100065.48
2018-12-23T23:04:34.293Z,100075.52
2018-12-23T23:07:03.498Z,100068.70
2018-12-23T23:09:32.706Z,100078.91
2018-12-23T23:12:01.916Z,100091.33
2018-12-23T23:14:31.132Z,100106.80
2018-12-23T23:17:00.328Z,100114.89
2018-12-23T23:19:29.543Z,100120.88
2018-12-23T23:21:58.764Z,100131.19
2018-12-23T23:24:28.261Z,100125.21
2018-12-23T23:26:57.579Z,100126.21
2018-12-23T23:29:26.852Z,100139.11
2018-12-23T23:31:56.315Z,100148.23
2018-12-23T23:34:25.902Z,100155.59
2018-12-23T23:36:55.472Z,100150.72
2018-12-23T23:39:25.193Z,100150.23
2018-12-23T23:41:58.325Z,100160.16
2018-12-23T23:44:26.244Z,100171.14
2018-12-23T23:46:55.901Z,100175.14
2018-12-23T23:49:44.636Z,100179.98
2018-12-23T23:52:13.821Z,100175.69
2018-12-23T23:54:43.045Z,100171.33
2018-12-23T23:57:12.523Z,100179.14
2018-12-23T23:59:41.716Z,100180.93
